sensor_id;sensor_type;location;lat;lon;timestamp;temperature;humidity
6206;DHT22;3136;48.788;9.772;2023-09-19T00:00:38;16.70;1.00
6206;DHT22;3136;48.788;9.772;2023-09-19T00:03:03;16.20;1.00
6206;DHT22;3136;48.788;9.772;2023-09-19T00:05:34;16.00;1.00
6206;DHT22;3136;48.788;9.772;2023-09-19T00:08:01;16.00;1.00
6206;DHT22;3136;48.788;9.772;2023-09-19T00:10:29;16.00;1.00
6206;DHT22;3136;48.788;9.772;2023-09-19T00:12:57;16.00;1.00
6206;DHT22;3136;48.788;9.772;2023-09-19T00:15:26;16.00;1.00
6206;DHT22;3136;48.788;9.772;2023-09-19T00:17:55;16.20;1.00
6206;DHT22;3136;48.788;9.772;2023-09-19T00:20:21;16.30;1.00
6206;DHT22;3136;48.788;9.772;2023-09-19T00:22:49;16.00;1.00
6206;DHT22;3136;48.788;9.772;2023-09-19T00:25:17;15.90;1.00
6206;DHT22;3136;48.788;9.772;2023-09-19T00:27:43;15.90;1.00
6206;DHT22;3136;48.788;9.772;2023-09-19T00:30:11;15.90;1.00
6206;DHT22;3136;48.788;9.772;2023-09-19T00:32:41;15.90;1.00
6206;DHT22;3136;48.788;9.772;2023-09-19T00:35:08;15.90;1.00
6206;DHT22;3136;48.788;9.772;2023-09-19T00:37:37;15.90;1.00
6206;DHT22;3136;48.788;9.772;2023-09-19T00:40:07;15.90;1.00
6206;DHT22;3136;48.788;9.772;2023-09-19T00:42:40;15.90;1.00
6206;DHT22;3136;48.788;9.772;2023-09-19T00:45:07;15.90;1.00
6206;DHT22;3136;48.788;9.772;2023-09-19T00:47:35;15.90;1.00
6206;DHT22;3136;48.788;9.772;2023-09-19T00:50:00;15.90;1.00
6206;DHT22;3136;48.788;9.772;2023-09-19T00:52:28;15.90;1.00
6206;DHT22;3136;48.788;9.772;2023-09-19T00:54:54;15.80;1.00
6206;DHT22;3136;48.788;9.772;2023-09-19T00:57:20;16.70;1.00
6206;DHT22;3136;48.788;9.772;2023-09-19T00:59:48;15.90;1.00
6206;DHT22;3136;48.788;9.772;2023-09-19T01:02:16;15.90;1.00
6206;DHT22;3136;48.788;9.772;2023-09-19T01:04:42;15.90;1.00
6206;DHT22;3136;48.788;9.772;2023-09-19T01:07:08;15.90;1.00
6206;DHT22;3136;48.788;9.772;2023-09-19T01:09:34;16.00;1.00
6206;DHT22;3136;48.788;9.772;2023-09-19T01:12:02;16.00;1.00
6206;DHT22;3136;48.788;9.772;2023-09-19T01:15:04;16.10;1.00
6206;DHT22;3136;48.788;9.772;2023-09-19T01:17:46;16.10;1.00
6206;DHT22;3136;48.788;9.772;2023-09-19T01:20:23;16.10;1.00
6206;DHT22;3136;48.788;9.772;2023-09-19T01:25:51;16.10;99.90
6206;DHT22;3136;48.788;9.772;2023-09-19T01:28:54;16.10;99.90
6206;DHT22;3136;48.788;9.772;2023-09-19T01:31:23;16.00;99.90
6206;DHT22;3136;48.788;9.772;2023-09-19T01:34:01;16.00;99.90
6206;DHT22;3136;48.788;9.772;2023-09-19T01:36:35;16.00;99.90
6206;DHT22;3136;48.788;9.772;2023-09-19T01:39:07;15.90;99.90
6206;DHT22;3136;48.788;9.772;2023-09-19T01:42:05;15.90;99.90
6206;DHT22;3136;48.788;9.772;2023-09-19T01:47:35;16.00;99.90
6206;DHT22;3136;48.788;9.772;2023-09-19T01:50:38;16.00;1.00
6206;DHT22;3136;48.788;9.772;2023-09-19T01:53:26;16.00;99.90
6206;DHT22;3136;48.788;9.772;2023-09-19T01:55:54;16.00;99.90
6206;DHT22;3136;48.788;9.772;2023-09-19T01:58:39;17.70;99.90
6206;DHT22;3136;48.788;9.772;2023-09-19T02:01:08;16.00;99.90
6206;DHT22;3136;48.788;9.772;2023-09-19T02:03:36;16.00;99.90
6206;DHT22;3136;48.788;9.772;2023-09-19T02:06:03;16.10;99.90
6206;DHT22;3136;48.788;9.772;2023-09-19T02:08:30;16.10;1.00
6206;DHT22;3136;48.788;9.772;2023-09-19T02:10:58;16.20;1.00
6206;DHT22;3136;48.788;9.772;2023-09-19T02:13:25;16.20;1.00
6206;DHT22;3136;48.788;9.772;2023-09-19T02:15:53;16.20;1.00
6206;DHT22;3136;48.788;9.772;2023-09-19T02:18:19;16.20;1.00
6206;DHT22;3136;48.788;9.772;2023-09-19T02:20:45;16.30;1.00
6206;DHT22;3136;48.788;9.772;2023-09-19T02:23:11;16.30;1.00
6206;DHT22;3136;48.788;9.772;2023-09-19T02:25:38;16.30;99.90
6206;DHT22;3136;48.788;9.772;2023-09-19T02:28:06;16.40;99.90
6206;DHT22;3136;48.788;9.772;2023-09-19T02:30:32;16.40;55.00
6206;DHT22;3136;48.788;9.772;2023-09-19T02:32:58;16.40;1.00
6206;DHT22;3136;48.788;9.772;2023-09-19T02:35:26;16.40;1.00
6206;DHT22;3136;48.788;9.772;2023-09-19T02:37:53;16.50;99.90
6206;DHT22;3136;48.788;9.772;2023-09-19T02:40:19;16.50;99.90
6206;DHT22;3136;48.788;9.772;2023-09-19T02:42:49;16.50;99.90
6206;DHT22;3136;48.788;9.772;2023-09-19T02:45:18;16.50;1.00
6206;DHT22;3136;48.788;9.772;2023-09-19T02:47:44;16.50;1.00
6206;DHT22;3136;48.788;9.772;2023-09-19T02:50:10;16.50;1.00
6206;DHT22;3136;48.788;9.772;2023-09-19T02:52:37;16.50;1.00
6206;DHT22;3136;48.788;9.772;2023-09-19T02:55:03;16.50;1.00
6206;DHT22;3136;48.788;9.772;2023-09-19T02:57:31;16.50;1.00
6206;DHT22;3136;48.788;9.772;2023-09-19T02:59:59;16.40;1.00
6206;DHT22;3136;48.788;9.772;2023-09-19T03:02:26;16.40;1.00
6206;DHT22;3136;48.788;9.772;2023-09-19T03:04:53;16.40;1.00
6206;DHT22;3136;48.788;9.772;2023-09-19T03:07:19;16.30;63.60
6206;DHT22;3136;48.788;9.772;2023-09-19T03:09:44;16.30;99.90
6206;DHT22;3136;48.788;9.772;2023-09-19T03:12:10;16.30;64.40
6206;DHT22;3136;48.788;9.772;2023-09-19T03:14:36;16.30;1.00
6206;DHT22;3136;48.788;9.772;2023-09-19T03:17:02;16.20;1.00
6206;DHT22;3136;48.788;9.772;2023-09-19T03:19:31;16.20;1.00
6206;DHT22;3136;48.788;9.772;2023-09-19T03:21:59;16.20;1.00
6206;DHT22;3136;48.788;9.772;2023-09-19T03:24:25;16.10;1.00
6206;DHT22;3136;48.788;9.772;2023-09-19T03:26:51;16.20;1.00
6206;DHT22;3136;48.788;9.772;2023-09-19T03:29:17;16.20;1.00
6206;DHT22;3136;48.788;9.772;2023-09-19T03:31:43;16.20;99.90
6206;DHT22;3136;48.788;9.772;2023-09-19T03:34:09;16.10;99.90
6206;DHT22;3136;48.788;9.772;2023-09-19T03:36:35;16.10;99.90
6206;DHT22;3136;48.788;9.772;2023-09-19T03:39:01;16.10;1.00
6206;DHT22;3136;48.788;9.772;2023-09-19T03:41:27;16.00;1.00
6206;DHT22;3136;48.788;9.772;2023-09-19T03:43:52;16.00;99.90
6206;DHT22;3136;48.788;9.772;2023-09-19T03:46:18;16.00;1.00
6206;DHT22;3136;48.788;9.772;2023-09-19T03:48:44;16.00;1.00
6206;DHT22;3136;48.788;9.772;2023-09-19T03:51:09;16.00;8.40
6206;DHT22;3136;48.788;9.772;2023-09-19T03:53:36;16.00;99.90
6206;DHT22;3136;48.788;9.772;2023-09-19T03:56:01;16.00;99.90
6206;DHT22;3136;48.788;9.772;2023-09-19T03:58:28;15.90;99.90
6206;DHT22;3136;48.788;9.772;2023-09-19T04:00:56;15.90;1.00
6206;DHT22;3136;48.788;9.772;2023-09-19T04:03:23;15.90;1.00
6206;DHT22;3136;48.788;9.772;2023-09-19T04:05:49;15.90;1.00
6206;DHT22;3136;48.788;9.772;2023-09-19T04:08:14;15.90;1.00
6206;DHT22;3136;48.788;9.772;2023-09-19T04:10:43;15.90;1.00
6206;DHT22;3136;48.788;9.772;2023-09-19T04:13:09;15.90;56.90
6206;DHT22;3136;48.788;9.772;2023-09-19T04:15:34;15.90;99.90
6206;DHT22;3136;48.788;9.772;2023-09-19T04:18:00;15.80;99.90
6206;DHT22;3136;48.788;9.772;2023-09-19T04:20:26;15.80;99.90
6206;DHT22;3136;48.788;9.772;2023-09-19T04:22:51;15.80;99.90
6206;DHT22;3136;48.788;9.772;2023-09-19T04:25:17;16.00;99.90
6206;DHT22;3136;48.788;9.772;2023-09-19T04:27:44;15.80;99.90
6206;DHT22;3136;48.788;9.772;2023-09-19T04:30:10;15.80;1.00
6206;DHT22;3136;48.788;9.772;2023-09-19T04:32:40;15.90;1.00
6206;DHT22;3136;48.788;9.772;2023-09-19T04:35:10;15.90;1.00
6206;DHT22;3136;48.788;9.772;2023-09-19T04:37:40;15.90;1.00
6206;DHT22;3136;48.788;9.772;2023-09-19T04:40:10;15.90;1.00
6206;DHT22;3136;48.788;9.772;2023-09-19T04:42:40;15.90;1.00
6206;DHT22;3136;48.788;9.772;2023-09-19T04:45:06;15.90;1.00
6206;DHT22;3136;48.788;9.772;2023-09-19T04:47:32;15.90;1.00
6206;DHT22;3136;48.788;9.772;2023-09-19T04:49:58;16.00;1.00
6206;DHT22;3136;48.788;9.772;2023-09-19T04:52:24;15.90;1.00
6206;DHT22;3136;48.788;9.772;2023-09-19T04:54:50;16.00;1.00
6206;DHT22;3136;48.788;9.772;2023-09-19T04:57:15;16.00;1.00
6206;DHT22;3136;48.788;9.772;2023-09-19T04:59:41;16.00;1.00
6206;DHT22;3136;48.788;9.772;2023-09-19T05:02:07;16.20;1.00
6206;DHT22;3136;48.788;9.772;2023-09-19T05:04:33;16.00;1.00
6206;DHT22;3136;48.788;9.772;2023-09-19T05:06:59;16.00;1.00
6206;DHT22;3136;48.788;9.772;2023-09-19T05:09:26;16.00;1.00
6206;DHT22;3136;48.788;9.772;2023-09-19T05:11:52;16.00;1.00
6206;DHT22;3136;48.788;9.772;2023-09-19T05:14:18;16.00;1.00
6206;DHT22;3136;48.788;9.772;2023-09-19T05:16:44;17.30;1.00
6206;DHT22;3136;48.788;9.772;2023-09-19T05:19:10;16.10;1.00
6206;DHT22;3136;48.788;9.772;2023-09-19T05:21:37;16.10;1.00
6206;DHT22;3136;48.788;9.772;2023-09-19T05:24:05;16.10;1.00
6206;DHT22;3136;48.788;9.772;2023-09-19T05:26:34;16.10;1.00
6206;DHT22;3136;48.788;9.772;2023-09-19T05:29:00;16.10;1.00
6206;DHT22;3136;48.788;9.772;2023-09-19T05:31:28;16.10;1.00
6206;DHT22;3136;48.788;9.772;2023-09-19T05:33:54;16.00;1.00
6206;DHT22;3136;48.788;9.772;2023-09-19T05:36:20;16.10;1.00
6206;DHT22;3136;48.788;9.772;2023-09-19T05:38:46;16.20;1.00
6206;DHT22;3136;48.788;9.772;2023-09-19T05:41:15;16.20;99.90
6206;DHT22;3136;48.788;9.772;2023-09-19T05:43:41;16.30;1.00
6206;DHT22;3136;48.788;9.772;2023-09-19T05:46:07;16.20;1.00
6206;DHT22;3136;48.788;9.772;2023-09-19T05:48:33;16.30;1.00
6206;DHT22;3136;48.788;9.772;2023-09-19T05:50:59;16.30;1.00
6206;DHT22;3136;48.788;9.772;2023-09-19T05:53:26;16.30;1.00
6206;DHT22;3136;48.788;9.772;2023-09-19T05:55:51;16.40;99.90
6206;DHT22;3136;48.788;9.772;2023-09-19T05:58:18;16.40;1.00
6206;DHT22;3136;48.788;9.772;2023-09-19T06:00:45;16.40;1.00
6206;DHT22;3136;48.788;9.772;2023-09-19T06:03:12;16.40;1.00
6206;DHT22;3136;48.788;9.772;2023-09-19T06:05:38;16.40;1.00
6206;DHT22;3136;48.788;9.772;2023-09-19T06:08:05;16.60;72.20
6206;DHT22;3136;48.788;9.772;2023-09-19T06:10:33;16.50;99.90
6206;DHT22;3136;48.788;9.772;2023-09-19T06:13:01;16.40;99.90
6206;DHT22;3136;48.788;9.772;2023-09-19T06:15:29;16.50;1.00
6206;DHT22;3136;48.788;9.772;2023-09-19T06:17:58;16.30;1.00
6206;DHT22;3136;48.788;9.772;2023-09-19T06:20:25;16.20;99.90
6206;DHT22;3136;48.788;9.772;2023-09-19T06:22:53;16.20;99.90
6206;DHT22;3136;48.788;9.772;2023-09-19T06:25:19;16.20;99.90
6206;DHT22;3136;48.788;9.772;2023-09-19T06:27:46;16.20;1.00
6206;DHT22;3136;48.788;9.772;2023-09-19T06:30:11;16.20;1.00
6206;DHT22;3136;48.788;9.772;2023-09-19T06:32:38;16.10;1.00
6206;DHT22;3136;48.788;9.772;2023-09-19T06:35:04;16.10;1.00
6206;DHT22;3136;48.788;9.772;2023-09-19T06:37:33;16.10;1.00
6206;DHT22;3136;48.788;9.772;2023-09-19T06:39:59;16.10;93.30
6206;DHT22;3136;48.788;9.772;2023-09-19T06:42:25;16.00;99.90
6206;DHT22;3136;48.788;9.772;2023-09-19T06:44:51;16.10;99.90
6206;DHT22;3136;48.788;9.772;2023-09-19T06:47:16;16.00;99.90
6206;DHT22;3136;48.788;9.772;2023-09-19T06:49:42;15.90;99.90
6206;DHT22;3136;48.788;9.772;2023-09-19T06:52:10;15.70;30.00
6206;DHT22;3136;48.788;9.772;2023-09-19T06:54:36;15.60;93.70
6206;DHT22;3136;48.788;9.772;2023-09-19T06:57:03;15.50;99.90
6206;DHT22;3136;48.788;9.772;2023-09-19T06:59:28;15.40;99.90
6206;DHT22;3136;48.788;9.772;2023-09-19T07:01:54;15.30;99.90
6206;DHT22;3136;48.788;9.772;2023-09-19T07:04:20;15.30;99.90
6206;DHT22;3136;48.788;9.772;2023-09-19T07:06:52;15.30;1.00
6206;DHT22;3136;48.788;9.772;2023-09-19T07:09:17;15.20;1.00
6206;DHT22;3136;48.788;9.772;2023-09-19T07:11:45;15.30;1.00
6206;DHT22;3136;48.788;9.772;2023-09-19T07:14:11;15.20;1.00
6206;DHT22;3136;48.788;9.772;2023-09-19T07:16:40;15.10;1.00
6206;DHT22;3136;48.788;9.772;2023-09-19T07:19:08;15.00;1.00
6206;DHT22;3136;48.788;9.772;2023-09-19T07:21:33;14.90;1.00
6206;DHT22;3136;48.788;9.772;2023-09-19T07:24:01;14.90;1.00
6206;DHT22;3136;48.788;9.772;2023-09-19T07:26:28;14.90;1.00
6206;DHT22;3136;48.788;9.772;2023-09-19T07:28:54;15.00;1.00
6206;DHT22;3136;48.788;9.772;2023-09-19T07:31:20;14.90;1.00
6206;DHT22;3136;48.788;9.772;2023-09-19T07:33:48;15.30;1.00
6206;DHT22;3136;48.788;9.772;2023-09-19T07:36:13;14.90;1.00
6206;DHT22;3136;48.788;9.772;2023-09-19T07:38:42;14.90;1.00
6206;DHT22;3136;48.788;9.772;2023-09-19T07:41:08;14.90;1.00
6206;DHT22;3136;48.788;9.772;2023-09-19T07:43:37;15.00;1.00
6206;DHT22;3136;48.788;9.772;2023-09-19T07:46:08;15.10;1.00
6206;DHT22;3136;48.788;9.772;2023-09-19T07:48:37;15.30;1.00
6206;DHT22;3136;48.788;9.772;2023-09-19T07:51:07;15.50;1.00
6206;DHT22;3136;48.788;9.772;2023-09-19T07:53:34;15.60;1.00
6206;DHT22;3136;48.788;9.772;2023-09-19T07:56:08;15.60;1.00
6206;DHT22;3136;48.788;9.772;2023-09-19T07:58:34;15.70;1.00
6206;DHT22;3136;48.788;9.772;2023-09-19T08:01:07;15.80;1.00
6206;DHT22;3136;48.788;9.772;2023-09-19T08:03:34;15.80;1.00
6206;DHT22;3136;48.788;9.772;2023-09-19T08:06:00;15.80;1.00
6206;DHT22;3136;48.788;9.772;2023-09-19T08:08:27;15.90;1.00
6206;DHT22;3136;48.788;9.772;2023-09-19T08:10:56;15.90;1.00
6206;DHT22;3136;48.788;9.772;2023-09-19T08:13:26;16.00;1.00
6206;DHT22;3136;48.788;9.772;2023-09-19T08:15:52;16.00;1.00
6206;DHT22;3136;48.788;9.772;2023-09-19T08:18:21;16.10;1.00
6206;DHT22;3136;48.788;9.772;2023-09-19T08:20:52;16.10;1.00
6206;DHT22;3136;48.788;9.772;2023-09-19T08:23:18;16.10;1.00
6206;DHT22;3136;48.788;9.772;2023-09-19T08:25:45;16.40;1.00
6206;DHT22;3136;48.788;9.772;2023-09-19T08:28:11;16.40;1.00
6206;DHT22;3136;48.788;9.772;2023-09-19T08:30:37;16.50;99.90
6206;DHT22;3136;48.788;9.772;2023-09-19T08:33:06;16.60;99.90
6206;DHT22;3136;48.788;9.772;2023-09-19T08:35:32;16.80;99.90
6206;DHT22;3136;48.788;9.772;2023-09-19T08:37:57;16.90;34.70
6206;DHT22;3136;48.788;9.772;2023-09-19T08:40:23;16.90;1.00
6206;DHT22;3136;48.788;9.772;2023-09-19T08:42:56;17.10;1.00
6206;DHT22;3136;48.788;9.772;2023-09-19T08:45:25;17.30;1.00
6206;DHT22;3136;48.788;9.772;2023-09-19T08:48:27;17.30;99.90
6206;DHT22;3136;48.788;9.772;2023-09-19T08:51:22;17.60;1.00
6206;DHT22;3136;48.788;9.772;2023-09-19T08:53:58;17.80;1.00
6206;DHT22;3136;48.788;9.772;2023-09-19T08:56:29;17.80;1.00
6206;DHT22;3136;48.788;9.772;2023-09-19T08:59:00;17.90;1.00
6206;DHT22;3136;48.788;9.772;2023-09-19T09:01:28;18.10;1.00
6206;DHT22;3136;48.788;9.772;2023-09-19T09:03:55;18.20;1.00
6206;DHT22;3136;48.788;9.772;2023-09-19T09:06:22;18.30;1.00
6206;DHT22;3136;48.788;9.772;2023-09-19T09:08:50;18.80;1.00
6206;DHT22;3136;48.788;9.772;2023-09-19T09:11:16;19.10;1.00
6206;DHT22;3136;48.788;9.772;2023-09-19T09:13:44;19.20;99.90
6206;DHT22;3136;48.788;9.772;2023-09-19T09:16:10;19.00;1.00
6206;DHT22;3136;48.788;9.772;2023-09-19T09:18:36;19.10;99.90
6206;DHT22;3136;48.788;9.772;2023-09-19T09:21:02;19.20;38.10
6206;DHT22;3136;48.788;9.772;2023-09-19T09:23:30;19.20;1.00
6206;DHT22;3136;48.788;9.772;2023-09-19T09:25:58;18.90;1.00
6206;DHT22;3136;48.788;9.772;2023-09-19T09:28:29;18.60;1.00
6206;DHT22;3136;48.788;9.772;2023-09-19T09:30:57;18.30;1.00
6206;DHT22;3136;48.788;9.772;2023-09-19T09:33:24;18.10;1.00
6206;DHT22;3136;48.788;9.772;2023-09-19T09:35:58;17.90;99.90
6206;DHT22;3136;48.788;9.772;2023-09-19T09:38:27;17.70;99.90
6206;DHT22;3136;48.788;9.772;2023-09-19T09:40:54;17.80;60.80
6206;DHT22;3136;48.788;9.772;2023-09-19T09:43:36;17.90;1.00
6206;DHT22;3136;48.788;9.772;2023-09-19T09:46:14;18.00;1.00
6206;DHT22;3136;48.788;9.772;2023-09-19T09:48:55;18.10;1.00
6206;DHT22;3136;48.788;9.772;2023-09-19T09:51:42;18.40;1.00
6206;DHT22;3136;48.788;9.772;2023-09-19T09:54:18;18.50;1.00
6206;DHT22;3136;48.788;9.772;2023-09-19T09:57:06;18.60;1.00
6206;DHT22;3136;48.788;9.772;2023-09-19T09:59:57;18.60;96.80
6206;DHT22;3136;48.788;9.772;2023-09-19T10:02:42;18.60;99.90
6206;DHT22;3136;48.788;9.772;2023-09-19T10:05:20;18.70;1.00
6206;DHT22;3136;48.788;9.772;2023-09-19T10:07:50;18.60;99.90
6206;DHT22;3136;48.788;9.772;2023-09-19T10:10:36;18.70;1.00
6206;DHT22;3136;48.788;9.772;2023-09-19T10:13:14;19.00;1.00
6206;DHT22;3136;48.788;9.772;2023-09-19T10:15:46;19.40;1.00
6206;DHT22;3136;48.788;9.772;2023-09-19T10:18:20;19.90;99.90
6206;DHT22;3136;48.788;9.772;2023-09-19T10:20:46;20.50;1.00
6206;DHT22;3136;48.788;9.772;2023-09-19T10:23:15;21.00;1.00
6206;DHT22;3136;48.788;9.772;2023-09-19T10:25:48;21.40;99.90
6206;DHT22;3136;48.788;9.772;2023-09-19T10:28:15;21.80;99.90
6206;DHT22;3136;48.788;9.772;2023-09-19T10:30:43;22.00;99.90
6206;DHT22;3136;48.788;9.772;2023-09-19T10:33:20;22.10;99.90
6206;DHT22;3136;48.788;9.772;2023-09-19T10:35:49;22.20;99.90
6206;DHT22;3136;48.788;9.772;2023-09-19T10:38:18;21.90;99.90
6206;DHT22;3136;48.788;9.772;2023-09-19T10:40:53;21.20;99.90
6206;DHT22;3136;48.788;9.772;2023-09-19T10:43:21;20.70;99.90
6206;DHT22;3136;48.788;9.772;2023-09-19T10:45:48;20.40;99.90
6206;DHT22;3136;48.788;9.772;2023-09-19T10:48:19;21.10;99.90
6206;DHT22;3136;48.788;9.772;2023-09-19T10:53:43;22.40;99.90
6206;DHT22;3136;48.788;9.772;2023-09-19T10:56:11;23.40;70.20
6206;DHT22;3136;48.788;9.772;2023-09-19T10:58:43;24.00;40.30
6206;DHT22;3136;48.788;9.772;2023-09-19T11:01:11;24.60;26.70
6206;DHT22;3136;48.788;9.772;2023-09-19T11:03:41;25.00;19.00
6206;DHT22;3136;48.788;9.772;2023-09-19T11:06:13;25.20;7.40
6206;DHT22;3136;48.788;9.772;2023-09-19T11:11:46;25.40;2.00
6206;DHT22;3136;48.788;9.772;2023-09-19T11:30:31;24.30;1.00
6206;DHT22;3136;48.788;9.772;2023-09-19T11:33:23;24.50;1.00
6206;DHT22;3136;48.788;9.772;2023-09-19T11:49:18;23.60;1.00
6206;DHT22;3136;48.788;9.772;2023-09-19T11:51:50;24.40;1.00
6206;DHT22;3136;48.788;9.772;2023-09-19T11:54:17;24.70;1.00
6206;DHT22;3136;48.788;9.772;2023-09-19T11:56:51;25.80;1.00
6206;DHT22;3136;48.788;9.772;2023-09-19T11:59:24;27.10;1.00
6206;DHT22;3136;48.788;9.772;2023-09-19T12:02:04;28.20;1.00
6206;DHT22;3136;48.788;9.772;2023-09-19T12:04:37;28.90;1.00
6206;DHT22;3136;48.788;9.772;2023-09-19T12:07:16;28.90;1.00
6206;DHT22;3136;48.788;9.772;2023-09-19T12:09:42;29.30;1.00
6206;DHT22;3136;48.788;9.772;2023-09-19T12:12:10;30.00;1.00
6206;DHT22;3136;48.788;9.772;2023-09-19T12:14:38;30.20;1.00
6206;DHT22;3136;48.788;9.772;2023-09-19T12:17:04;30.50;1.00
6206;DHT22;3136;48.788;9.772;2023-09-19T12:19:30;30.50;1.00
6206;DHT22;3136;48.788;9.772;2023-09-19T12:22:00;30.10;1.00
6206;DHT22;3136;48.788;9.772;2023-09-19T12:24:30;30.30;1.00
6206;DHT22;3136;48.788;9.772;2023-09-19T12:27:01;30.40;1.00
6206;DHT22;3136;48.788;9.772;2023-09-19T12:29:27;30.30;1.00
6206;DHT22;3136;48.788;9.772;2023-09-19T12:31:57;29.50;1.00
6206;DHT22;3136;48.788;9.772;2023-09-19T12:34:33;28.60;1.00
6206;DHT22;3136;48.788;9.772;2023-09-19T12:37:14;28.80;1.00
6206;DHT22;3136;48.788;9.772;2023-09-19T12:39:49;29.10;1.00
6206;DHT22;3136;48.788;9.772;2023-09-19T12:42:17;29.50;1.00
6206;DHT22;3136;48.788;9.772;2023-09-19T12:44:45;30.20;1.00
6206;DHT22;3136;48.788;9.772;2023-09-19T12:47:16;30.90;1.00
6206;DHT22;3136;48.788;9.772;2023-09-19T12:50:13;31.50;1.00
6206;DHT22;3136;48.788;9.772;2023-09-19T12:52:44;32.40;1.00
6206;DHT22;3136;48.788;9.772;2023-09-19T12:55:31;33.10;1.00
6206;DHT22;3136;48.788;9.772;2023-09-19T12:58:14;33.00;1.00
6206;DHT22;3136;48.788;9.772;2023-09-19T13:00:45;32.70;1.00
6206;DHT22;3136;48.788;9.772;2023-09-19T13:03:19;32.50;1.00
6206;DHT22;3136;48.788;9.772;2023-09-19T13:06:02;32.10;1.00
6206;DHT22;3136;48.788;9.772;2023-09-19T13:08:31;31.90;1.00
6206;DHT22;3136;48.788;9.772;2023-09-19T13:11:03;32.20;1.00
6206;DHT22;3136;48.788;9.772;2023-09-19T13:13:33;32.50;1.00
6206;DHT22;3136;48.788;9.772;2023-09-19T13:16:00;32.40;1.00
6206;DHT22;3136;48.788;9.772;2023-09-19T13:18:27;32.60;1.00
6206;DHT22;3136;48.788;9.772;2023-09-19T13:21:09;33.00;1.00
6206;DHT22;3136;48.788;9.772;2023-09-19T13:23:51;33.10;1.00
6206;DHT22;3136;48.788;9.772;2023-09-19T13:26:17;33.40;1.00
6206;DHT22;3136;48.788;9.772;2023-09-19T13:28:43;33.00;1.00
6206;DHT22;3136;48.788;9.772;2023-09-19T13:31:10;32.40;1.00
6206;DHT22;3136;48.788;9.772;2023-09-19T13:33:46;32.30;1.00
6206;DHT22;3136;48.788;9.772;2023-09-19T13:36:12;31.70;1.00
6206;DHT22;3136;48.788;9.772;2023-09-19T13:38:42;31.90;1.00
6206;DHT22;3136;48.788;9.772;2023-09-19T13:41:14;32.30;1.00
6206;DHT22;3136;48.788;9.772;2023-09-19T13:43:39;32.00;1.00
6206;DHT22;3136;48.788;9.772;2023-09-19T13:46:05;31.50;1.00
6206;DHT22;3136;48.788;9.772;2023-09-19T13:48:37;31.20;1.00
6206;DHT22;3136;48.788;9.772;2023-09-19T13:51:04;31.20;1.00
6206;DHT22;3136;48.788;9.772;2023-09-19T13:53:30;31.70;1.00
6206;DHT22;3136;48.788;9.772;2023-09-19T13:55:55;31.10;1.00
6206;DHT22;3136;48.788;9.772;2023-09-19T13:58:21;30.60;1.00
6206;DHT22;3136;48.788;9.772;2023-09-19T14:00:48;31.00;1.00
6206;DHT22;3136;48.788;9.772;2023-09-19T14:03:14;31.50;1.00
6206;DHT22;3136;48.788;9.772;2023-09-19T14:05:39;30.70;1.00
6206;DHT22;3136;48.788;9.772;2023-09-19T14:08:05;30.00;1.00
6206;DHT22;3136;48.788;9.772;2023-09-19T14:10:31;29.70;1.00
6206;DHT22;3136;48.788;9.772;2023-09-19T14:12:57;29.30;1.00
6206;DHT22;3136;48.788;9.772;2023-09-19T14:15:25;28.10;1.00
6206;DHT22;3136;48.788;9.772;2023-09-19T14:17:56;26.90;1.00
6206;DHT22;3136;48.788;9.772;2023-09-19T14:20:22;25.90;1.00
6206;DHT22;3136;48.788;9.772;2023-09-19T14:22:48;25.00;1.00
6206;DHT22;3136;48.788;9.772;2023-09-19T14:25:14;24.50;1.00
6206;DHT22;3136;48.788;9.772;2023-09-19T14:27:39;24.20;1.00
6206;DHT22;3136;48.788;9.772;2023-09-19T14:30:06;24.30;1.00
6206;DHT22;3136;48.788;9.772;2023-09-19T14:32:32;24.60;1.00
6206;DHT22;3136;48.788;9.772;2023-09-19T14:34:57;24.90;1.00
6206;DHT22;3136;48.788;9.772;2023-09-19T14:37:23;25.10;1.00
6206;DHT22;3136;48.788;9.772;2023-09-19T14:39:48;24.90;1.00
6206;DHT22;3136;48.788;9.772;2023-09-19T14:42:14;24.90;1.00
6206;DHT22;3136;48.788;9.772;2023-09-19T14:44:43;24.50;1.00
6206;DHT22;3136;48.788;9.772;2023-09-19T14:47:09;24.00;1.00
6206;DHT22;3136;48.788;9.772;2023-09-19T14:49:35;23.70;1.00
6206;DHT22;3136;48.788;9.772;2023-09-19T14:52:03;23.40;1.00
6206;DHT22;3136;48.788;9.772;2023-09-19T14:54:30;23.10;1.00
6206;DHT22;3136;48.788;9.772;2023-09-19T14:56:56;22.80;1.00
6206;DHT22;3136;48.788;9.772;2023-09-19T14:59:31;22.70;1.00
6206;DHT22;3136;48.788;9.772;2023-09-19T15:01:57;22.60;1.00
6206;DHT22;3136;48.788;9.772;2023-09-19T15:04:23;22.50;1.00
6206;DHT22;3136;48.788;9.772;2023-09-19T15:06:49;22.40;1.00
6206;DHT22;3136;48.788;9.772;2023-09-19T15:09:16;22.20;1.00
6206;DHT22;3136;48.788;9.772;2023-09-19T15:11:44;22.20;1.00
6206;DHT22;3136;48.788;9.772;2023-09-19T15:14:09;22.10;1.00
6206;DHT22;3136;48.788;9.772;2023-09-19T15:16:35;22.10;1.00
6206;DHT22;3136;48.788;9.772;2023-09-19T15:19:01;22.10;1.00
6206;DHT22;3136;48.788;9.772;2023-09-19T15:21:26;22.20;1.00
6206;DHT22;3136;48.788;9.772;2023-09-19T15:23:52;22.20;1.00
6206;DHT22;3136;48.788;9.772;2023-09-19T15:26:18;22.20;1.00
6206;DHT22;3136;48.788;9.772;2023-09-19T15:28:47;22.30;1.00
6206;DHT22;3136;48.788;9.772;2023-09-19T15:31:13;22.20;1.00
6206;DHT22;3136;48.788;9.772;2023-09-19T15:33:39;22.20;1.00
6206;DHT22;3136;48.788;9.772;2023-09-19T15:36:08;22.20;1.00
6206;DHT22;3136;48.788;9.772;2023-09-19T15:41:33;22.10;1.00
6206;DHT22;3136;48.788;9.772;2023-09-19T15:44:01;22.00;1.00
6206;DHT22;3136;48.788;9.772;2023-09-19T15:46:27;22.00;1.00
6206;DHT22;3136;48.788;9.772;2023-09-19T15:48:54;21.90;1.00
6206;DHT22;3136;48.788;9.772;2023-09-19T15:51:20;21.90;1.00
6206;DHT22;3136;48.788;9.772;2023-09-19T15:53:47;21.70;1.00
6206;DHT22;3136;48.788;9.772;2023-09-19T15:56:14;21.70;1.00
6206;DHT22;3136;48.788;9.772;2023-09-19T15:58:47;21.60;1.00
6206;DHT22;3136;48.788;9.772;2023-09-19T16:01:14;21.50;1.00
6206;DHT22;3136;48.788;9.772;2023-09-19T16:03:43;21.50;1.00
6206;DHT22;3136;48.788;9.772;2023-09-19T16:06:13;21.40;1.00
6206;DHT22;3136;48.788;9.772;2023-09-19T16:08:43;21.20;1.00
6206;DHT22;3136;48.788;9.772;2023-09-19T16:11:09;21.20;1.00
6206;DHT22;3136;48.788;9.772;2023-09-19T16:13:39;21.20;1.00
6206;DHT22;3136;48.788;9.772;2023-09-19T16:16:07;21.20;1.00
6206;DHT22;3136;48.788;9.772;2023-09-19T16:18:34;21.10;1.00
6206;DHT22;3136;48.788;9.772;2023-09-19T16:21:03;21.20;1.00
6206;DHT22;3136;48.788;9.772;2023-09-19T16:23:30;21.20;1.00
6206;DHT22;3136;48.788;9.772;2023-09-19T16:26:04;21.00;1.00
6206;DHT22;3136;48.788;9.772;2023-09-19T16:28:31;20.80;1.00
6206;DHT22;3136;48.788;9.772;2023-09-19T16:30:58;20.80;1.00
6206;DHT22;3136;48.788;9.772;2023-09-19T16:33:25;20.60;32.20
6206;DHT22;3136;48.788;9.772;2023-09-19T16:35:51;20.50;77.50
6206;DHT22;3136;48.788;9.772;2023-09-19T16:38:18;20.30;99.90
6206;DHT22;3136;48.788;9.772;2023-09-19T16:40:56;20.10;99.90
6206;DHT22;3136;48.788;9.772;2023-09-19T16:43:24;19.90;99.90
6206;DHT22;3136;48.788;9.772;2023-09-19T16:45:54;19.90;99.90
6206;DHT22;3136;48.788;9.772;2023-09-19T16:48:21;18.90;99.90
6206;DHT22;3136;48.788;9.772;2023-09-19T16:50:48;19.40;99.90
6206;DHT22;3136;48.788;9.772;2023-09-19T16:53:14;19.20;99.90
6206;DHT22;3136;48.788;9.772;2023-09-19T16:55:39;19.10;99.90
6206;DHT22;3136;48.788;9.772;2023-09-19T16:58:06;18.90;99.90
6206;DHT22;3136;48.788;9.772;2023-09-19T17:00:35;18.80;99.90
6206;DHT22;3136;48.788;9.772;2023-09-19T17:03:01;18.60;1.00
6206;DHT22;3136;48.788;9.772;2023-09-19T17:05:29;18.50;1.00
6206;DHT22;3136;48.788;9.772;2023-09-19T17:07:55;18.40;1.00
6206;DHT22;3136;48.788;9.772;2023-09-19T17:10:23;18.30;1.00